sensor_id;sensor_type;location;lat;lon;timestamp;temperature;humidity
70456;DHT22;57916;51.996;5.180;2023-02-28T00:01:07;6.40;62.70
70456;DHT22;57916;51.996;5.180;2023-02-28T00:03:34;6.40;62.50
70456;DHT22;57916;51.996;5.180;2023-02-28T00:06:04;6.40;62.50
70456;DHT22;57916;51.996;5.180;2023-02-28T00:08:31;6.40;62.70
70456;DHT22;57916;51.996;5.180;2023-02-28T00:11:10;6.30;63.40
70456;DHT22;57916;51.996;5.180;2023-02-28T00:13:39;6.20;63.70
70456;DHT22;57916;51.996;5.180;2023-02-28T00:16:12;6.20;63.80
70456;DHT22;57916;51.996;5.180;2023-02-28T00:18:40;6.20;63.30
70456;DHT22;57916;51.996;5.180;2023-02-28T00:21:07;6.20;64.00
70456;DHT22;57916;51.996;5.180;2023-02-28T00:23:34;6.30;63.50
70456;DHT22;57916;51.996;5.180;2023-02-28T00:26:02;6.30;63.80
70456;DHT22;57916;51.996;5.180;2023-02-28T00:28:28;6.30;64.20
70456;DHT22;57916;51.996;5.180;2023-02-28T00:30:58;6.20;64.30
70456;DHT22;57916;51.996;5.180;2023-02-28T00:33:28;6.20;64.60
70456;DHT22;57916;51.996;5.180;2023-02-28T00:36:06;6.20;64.90
70456;DHT22;57916;51.996;5.180;2023-02-28T00:38:35;6.20;65.10
70456;DHT22;57916;51.996;5.180;2023-02-28T00:41:02;6.10;65.10
70456;DHT22;57916;51.996;5.180;2023-02-28T00:43:35;6.10;65.30
70456;DHT22;57916;51.996;5.180;2023-02-28T00:46:03;6.10;65.50
70456;DHT22;57916;51.996;5.180;2023-02-28T00:48:31;6.10;65.80
70456;DHT22;57916;51.996;5.180;2023-02-28T00:50:58;6.10;65.90
70456;DHT22;57916;51.996;5.180;2023-02-28T00:53:28;6.10;66.10
70456;DHT22;57916;51.996;5.180;2023-02-28T00:55:56;6.20;66.10
70456;DHT22;57916;51.996;5.180;2023-02-28T00:58:26;6.20;66.10
70456;DHT22;57916;51.996;5.180;2023-02-28T01:00:54;6.20;66.10
70456;DHT22;57916;51.996;5.180;2023-02-28T01:03:21;6.30;66.10
70456;DHT22;57916;51.996;5.180;2023-02-28T01:05:49;6.30;66.00
70456;DHT22;57916;51.996;5.180;2023-02-28T01:08:16;6.30;66.10
70456;DHT22;57916;51.996;5.180;2023-02-28T01:10:43;6.30;66.10
70456;DHT22;57916;51.996;5.180;2023-02-28T01:13:12;6.40;66.20
70456;DHT22;57916;51.996;5.180;2023-02-28T01:15:46;6.40;66.20
70456;DHT22;57916;51.996;5.180;2023-02-28T01:18:15;6.40;66.20
70456;DHT22;57916;51.996;5.180;2023-02-28T01:20:42;6.50;66.30
70456;DHT22;57916;51.996;5.180;2023-02-28T01:23:09;6.50;66.30
70456;DHT22;57916;51.996;5.180;2023-02-28T01:25:36;6.60;66.30
70456;DHT22;57916;51.996;5.180;2023-02-28T01:28:04;6.60;66.30
70456;DHT22;57916;51.996;5.180;2023-02-28T01:30:32;6.60;66.10
70456;DHT22;57916;51.996;5.180;2023-02-28T01:33:02;6.60;66.20
70456;DHT22;57916;51.996;5.180;2023-02-28T01:35:33;6.60;66.30
70456;DHT22;57916;51.996;5.180;2023-02-28T01:38:00;6.60;66.20
70456;DHT22;57916;51.996;5.180;2023-02-28T01:40:46;6.60;66.30
70456;DHT22;57916;51.996;5.180;2023-02-28T01:43:32;6.60;66.30
70456;DHT22;57916;51.996;5.180;2023-02-28T01:45:59;6.60;66.40
70456;DHT22;57916;51.996;5.180;2023-02-28T01:48:29;6.60;66.40
70456;DHT22;57916;51.996;5.180;2023-02-28T01:51:02;6.70;66.60
70456;DHT22;57916;51.996;5.180;2023-02-28T01:53:38;6.70;66.50
70456;DHT22;57916;51.996;5.180;2023-02-28T01:56:06;6.70;66.40
70456;DHT22;57916;51.996;5.180;2023-02-28T01:58:36;6.70;66.50
70456;DHT22;57916;51.996;5.180;2023-02-28T02:01:04;6.70;66.60
70456;DHT22;57916;51.996;5.180;2023-02-28T02:03:32;6.70;66.60
70456;DHT22;57916;51.996;5.180;2023-02-28T02:06:02;6.70;66.50
70456;DHT22;57916;51.996;5.180;2023-02-28T02:08:29;6.80;66.50
70456;DHT22;57916;51.996;5.180;2023-02-28T02:10:57;6.90;66.50
70456;DHT22;57916;51.996;5.180;2023-02-28T02:18:52;7.00;65.90
70456;DHT22;57916;51.996;5.180;2023-02-28T02:30:22;7.20;66.00
70456;DHT22;57916;51.996;5.180;2023-02-28T02:33:23;7.30;65.90
70456;DHT22;57916;51.996;5.180;2023-02-28T02:43:51;7.40;65.20
70456;DHT22;57916;51.996;5.180;2023-02-28T02:49:00;7.50;65.00
70456;DHT22;57916;51.996;5.180;2023-02-28T02:51:31;7.50;65.10
70456;DHT22;57916;51.996;5.180;2023-02-28T02:54:14;7.50;65.00
70456;DHT22;57916;51.996;5.180;2023-02-28T02:56:45;7.50;65.10
70456;DHT22;57916;51.996;5.180;2023-02-28T02:59:16;7.50;65.20
70456;DHT22;57916;51.996;5.180;2023-02-28T03:01:54;7.50;65.00
70456;DHT22;57916;51.996;5.180;2023-02-28T03:04:24;7.50;65.00
70456;DHT22;57916;51.996;5.180;2023-02-28T03:06:52;7.50;64.80
70456;DHT22;57916;51.996;5.180;2023-02-28T03:09:22;7.50;64.90
70456;DHT22;57916;51.996;5.180;2023-02-28T03:11:51;7.50;65.20
70456;DHT22;57916;51.996;5.180;2023-02-28T03:14:36;7.40;65.30
70456;DHT22;57916;51.996;5.180;2023-02-28T03:17:35;7.40;65.30
70456;DHT22;57916;51.996;5.180;2023-02-28T03:20:40;7.40;65.20
70456;DHT22;57916;51.996;5.180;2023-02-28T03:23:27;7.40;65.50
70456;DHT22;57916;51.996;5.180;2023-02-28T03:26:07;7.40;65.50
70456;DHT22;57916;51.996;5.180;2023-02-28T03:28:55;7.50;65.50
70456;DHT22;57916;51.996;5.180;2023-02-28T03:31:33;7.50;65.20
70456;DHT22;57916;51.996;5.180;2023-02-28T03:34:20;7.50;65.00
70456;DHT22;57916;51.996;5.180;2023-02-28T03:36:52;7.60;65.00
70456;DHT22;57916;51.996;5.180;2023-02-28T03:39:28;7.60;64.90
70456;DHT22;57916;51.996;5.180;2023-02-28T03:42:00;7.60;65.10
70456;DHT22;57916;51.996;5.180;2023-02-28T03:44:56;7.60;65.10
70456;DHT22;57916;51.996;5.180;2023-02-28T03:50:16;7.50;65.10
70456;DHT22;57916;51.996;5.180;2023-02-28T03:53:10;7.50;65.30
70456;DHT22;57916;51.996;5.180;2023-02-28T03:55:42;7.40;65.70
70456;DHT22;57916;51.996;5.180;2023-02-28T03:58:27;7.40;66.00
70456;DHT22;57916;51.996;5.180;2023-02-28T04:01:03;7.50;65.80
70456;DHT22;57916;51.996;5.180;2023-02-28T04:03:36;7.50;66.00
70456;DHT22;57916;51.996;5.180;2023-02-28T04:06:04;7.50;65.90
70456;DHT22;57916;51.996;5.180;2023-02-28T04:08:32;7.50;65.60
70456;DHT22;57916;51.996;5.180;2023-02-28T04:11:22;7.50;65.70
70456;DHT22;57916;51.996;5.180;2023-02-28T04:13:50;7.40;65.80
70456;DHT22;57916;51.996;5.180;2023-02-28T04:16:17;7.40;66.00
70456;DHT22;57916;51.996;5.180;2023-02-28T04:19:00;7.30;66.10
70456;DHT22;57916;51.996;5.180;2023-02-28T04:21:34;7.30;66.20
70456;DHT22;57916;51.996;5.180;2023-02-28T04:24:02;7.20;66.20
70456;DHT22;57916;51.996;5.180;2023-02-28T04:26:31;7.10;66.20
70456;DHT22;57916;51.996;5.180;2023-02-28T04:28:58;7.00;66.50
70456;DHT22;57916;51.996;5.180;2023-02-28T04:31:26;6.90;66.50
70456;DHT22;57916;51.996;5.180;2023-02-28T04:33:53;6.70;66.20
70456;DHT22;57916;51.996;5.180;2023-02-28T04:36:20;6.60;65.30
70456;DHT22;57916;51.996;5.180;2023-02-28T04:38:47;6.50;65.00
70456;DHT22;57916;51.996;5.180;2023-02-28T04:41:14;6.50;64.90
70456;DHT22;57916;51.996;5.180;2023-02-28T04:43:41;6.40;64.40
70456;DHT22;57916;51.996;5.180;2023-02-28T04:46:08;6.50;64.10
70456;DHT22;57916;51.996;5.180;2023-02-28T04:48:37;6.50;63.90
70456;DHT22;57916;51.996;5.180;2023-02-28T04:51:08;6.40;63.30
70456;DHT22;57916;51.996;5.180;2023-02-28T04:53:37;6.50;63.40
70456;DHT22;57916;51.996;5.180;2023-02-28T04:56:05;6.40;63.30
70456;DHT22;57916;51.996;5.180;2023-02-28T04:58:33;6.40;63.30
70456;DHT22;57916;51.996;5.180;2023-02-28T05:01:05;6.40;63.20
70456;DHT22;57916;51.996;5.180;2023-02-28T05:03:39;6.40;63.20
70456;DHT22;57916;51.996;5.180;2023-02-28T05:06:10;6.40;63.10
70456;DHT22;57916;51.996;5.180;2023-02-28T05:08:38;6.40;63.10
70456;DHT22;57916;51.996;5.180;2023-02-28T05:11:15;6.40;63.00
70456;DHT22;57916;51.996;5.180;2023-02-28T05:13:42;6.40;63.10
70456;DHT22;57916;51.996;5.180;2023-02-28T05:16:10;6.40;63.30
70456;DHT22;57916;51.996;5.180;2023-02-28T05:18:37;6.40;63.30
70456;DHT22;57916;51.996;5.180;2023-02-28T05:21:04;6.30;63.60
70456;DHT22;57916;51.996;5.180;2023-02-28T05:23:32;6.30;64.40
70456;DHT22;57916;51.996;5.180;2023-02-28T05:25:59;6.20;64.70
70456;DHT22;57916;51.996;5.180;2023-02-28T05:28:26;6.10;65.20
70456;DHT22;57916;51.996;5.180;2023-02-28T05:30:53;6.10;65.60
70456;DHT22;57916;51.996;5.180;2023-02-28T05:33:20;6.00;66.00
70456;DHT22;57916;51.996;5.180;2023-02-28T05:35:47;6.00;66.10
70456;DHT22;57916;51.996;5.180;2023-02-28T05:38:14;6.00;66.50
70456;DHT22;57916;51.996;5.180;2023-02-28T05:40:41;6.00;66.60
70456;DHT22;57916;51.996;5.180;2023-02-28T05:43:10;6.00;66.90
70456;DHT22;57916;51.996;5.180;2023-02-28T05:45:38;6.00;67.00
70456;DHT22;57916;51.996;5.180;2023-02-28T05:48:05;6.10;67.10
70456;DHT22;57916;51.996;5.180;2023-02-28T05:50:32;6.10;67.00
70456;DHT22;57916;51.996;5.180;2023-02-28T05:52:59;6.20;66.90
70456;DHT22;57916;51.996;5.180;2023-02-28T05:55:26;6.20;66.90
70456;DHT22;57916;51.996;5.180;2023-02-28T05:57:53;6.30;66.80
70456;DHT22;57916;51.996;5.180;2023-02-28T06:00:20;6.30;66.40
70456;DHT22;57916;51.996;5.180;2023-02-28T06:02:47;6.30;66.50
70456;DHT22;57916;51.996;5.180;2023-02-28T06:05:15;6.40;66.30
70456;DHT22;57916;51.996;5.180;2023-02-28T06:07:43;6.40;66.20
70456;DHT22;57916;51.996;5.180;2023-02-28T06:10:11;6.40;66.20
70456;DHT22;57916;51.996;5.180;2023-02-28T06:12:38;6.40;66.10
70456;DHT22;57916;51.996;5.180;2023-02-28T06:15:06;6.40;66.30
70456;DHT22;57916;51.996;5.180;2023-02-28T06:17:33;6.40;66.60
70456;DHT22;57916;51.996;5.180;2023-02-28T06:20:00;6.50;66.90
70456;DHT22;57916;51.996;5.180;2023-02-28T06:22:27;6.60;67.10
70456;DHT22;57916;51.996;5.180;2023-02-28T06:24:53;6.60;67.10
70456;DHT22;57916;51.996;5.180;2023-02-28T06:27:21;6.70;66.90
70456;DHT22;57916;51.996;5.180;2023-02-28T06:29:48;6.70;66.70
70456;DHT22;57916;51.996;5.180;2023-02-28T06:32:15;6.70;67.00
70456;DHT22;57916;51.996;5.180;2023-02-28T06:34:42;6.70;66.90
70456;DHT22;57916;51.996;5.180;2023-02-28T06:37:09;6.80;66.80
70456;DHT22;57916;51.996;5.180;2023-02-28T06:39:37;6.80;66.90
70456;DHT22;57916;51.996;5.180;2023-02-28T06:42:04;6.80;67.00
70456;DHT22;57916;51.996;5.180;2023-02-28T06:44:31;6.80;66.90
70456;DHT22;57916;51.996;5.180;2023-02-28T06:47:03;6.90;66.60
70456;DHT22;57916;51.996;5.180;2023-02-28T06:49:32;6.90;66.50
70456;DHT22;57916;51.996;5.180;2023-02-28T06:52:00;6.90;66.50
70456;DHT22;57916;51.996;5.180;2023-02-28T06:54:27;6.90;66.60
70456;DHT22;57916;51.996;5.180;2023-02-28T06:56:53;6.90;66.80
70456;DHT22;57916;51.996;5.180;2023-02-28T06:59:21;6.90;66.70
70456;DHT22;57916;51.996;5.180;2023-02-28T07:01:47;7.00;66.80
70456;DHT22;57916;51.996;5.180;2023-02-28T07:04:14;7.00;67.00
70456;DHT22;57916;51.996;5.180;2023-02-28T07:06:41;6.90;67.10
70456;DHT22;57916;51.996;5.180;2023-02-28T07:09:08;6.90;67.40
70456;DHT22;57916;51.996;5.180;2023-02-28T07:11:35;6.90;67.60
70456;DHT22;57916;51.996;5.180;2023-02-28T07:14:02;6.90;67.70
70456;DHT22;57916;51.996;5.180;2023-02-28T07:16:29;7.00;67.70
70456;DHT22;57916;51.996;5.180;2023-02-28T07:18:56;7.00;67.30
70456;DHT22;57916;51.996;5.180;2023-02-28T07:21:23;7.00;67.40
70456;DHT22;57916;51.996;5.180;2023-02-28T07:23:50;7.00;67.70
70456;DHT22;57916;51.996;5.180;2023-02-28T07:26:19;7.00;67.70
70456;DHT22;57916;51.996;5.180;2023-02-28T07:28:48;7.00;67.70
70456;DHT22;57916;51.996;5.180;2023-02-28T07:31:15;7.10;67.60
70456;DHT22;57916;51.996;5.180;2023-02-28T07:33:43;7.10;67.60
70456;DHT22;57916;51.996;5.180;2023-02-28T07:36:14;7.10;67.80
70456;DHT22;57916;51.996;5.180;2023-02-28T07:38:47;7.10;67.80
70456;DHT22;57916;51.996;5.180;2023-02-28T07:41:20;7.10;67.50
70456;DHT22;57916;51.996;5.180;2023-02-28T07:43:48;7.10;67.70
70456;DHT22;57916;51.996;5.180;2023-02-28T07:46:16;7.10;67.60
70456;DHT22;57916;51.996;5.180;2023-02-28T07:48:44;7.20;67.70
70456;DHT22;57916;51.996;5.180;2023-02-28T07:51:11;7.20;67.80
70456;DHT22;57916;51.996;5.180;2023-02-28T07:53:39;7.20;67.80
70456;DHT22;57916;51.996;5.180;2023-02-28T07:56:06;7.20;67.60
70456;DHT22;57916;51.996;5.180;2023-02-28T07:58:33;7.20;67.80
70456;DHT22;57916;51.996;5.180;2023-02-28T08:01:08;7.20;67.80
70456;DHT22;57916;51.996;5.180;2023-02-28T08:03:36;7.20;68.00
70456;DHT22;57916;51.996;5.180;2023-02-28T08:06:04;7.10;68.20
70456;DHT22;57916;51.996;5.180;2023-02-28T08:08:32;7.00;68.10
70456;DHT22;57916;51.996;5.180;2023-02-28T08:11:00;6.90;68.70
70456;DHT22;57916;51.996;5.180;2023-02-28T08:13:28;6.90;69.10
70456;DHT22;57916;51.996;5.180;2023-02-28T08:15:56;6.90;70.00
70456;DHT22;57916;51.996;5.180;2023-02-28T08:18:23;6.80;69.10
70456;DHT22;57916;51.996;5.180;2023-02-28T08:20:50;6.80;69.20
70456;DHT22;57916;51.996;5.180;2023-02-28T08:23:17;6.80;69.50
70456;DHT22;57916;51.996;5.180;2023-02-28T08:25:44;6.70;69.40
70456;DHT22;57916;51.996;5.180;2023-02-28T08:28:11;6.70;69.40
70456;DHT22;57916;51.996;5.180;2023-02-28T08:30:38;6.60;69.40
70456;DHT22;57916;51.996;5.180;2023-02-28T08:33:07;6.60;69.40
70456;DHT22;57916;51.996;5.180;2023-02-28T08:35:36;6.60;69.30
70456;DHT22;57916;51.996;5.180;2023-02-28T08:38:03;6.60;69.40
70456;DHT22;57916;51.996;5.180;2023-02-28T08:40:30;6.60;69.30
70456;DHT22;57916;51.996;5.180;2023-02-28T08:42:57;6.50;68.70
70456;DHT22;57916;51.996;5.180;2023-02-28T08:45:24;6.50;68.30
70456;DHT22;57916;51.996;5.180;2023-02-28T08:47:53;6.60;68.10
70456;DHT22;57916;51.996;5.180;2023-02-28T08:50:20;6.60;67.70
70456;DHT22;57916;51.996;5.180;2023-02-28T08:52:47;6.70;67.70
70456;DHT22;57916;51.996;5.180;2023-02-28T08:55:14;6.80;66.70
70456;DHT22;57916;51.996;5.180;2023-02-28T08:57:42;6.90;65.90
70456;DHT22;57916;51.996;5.180;2023-02-28T09:00:09;7.00;65.20
70456;DHT22;57916;51.996;5.180;2023-02-28T09:02:36;7.00;63.80
70456;DHT22;57916;51.996;5.180;2023-02-28T09:05:05;7.00;63.00
70456;DHT22;57916;51.996;5.180;2023-02-28T09:07:32;7.10;62.20
70456;DHT22;57916;51.996;5.180;2023-02-28T09:09:59;7.10;61.80
70456;DHT22;57916;51.996;5.180;2023-02-28T09:12:26;7.10;60.70
70456;DHT22;57916;51.996;5.180;2023-02-28T09:14:54;7.20;59.70
70456;DHT22;57916;51.996;5.180;2023-02-28T09:17:21;7.20;59.20
70456;DHT22;57916;51.996;5.180;2023-02-28T09:19:48;7.30;57.30
70456;DHT22;57916;51.996;5.180;2023-02-28T09:22:16;7.30;55.60
70456;DHT22;57916;51.996;5.180;2023-02-28T09:24:43;7.30;55.10
70456;DHT22;57916;51.996;5.180;2023-02-28T09:27:11;7.40;55.50
70456;DHT22;57916;51.996;5.180;2023-02-28T09:29:40;7.40;54.20
70456;DHT22;57916;51.996;5.180;2023-02-28T09:32:07;7.50;53.20
70456;DHT22;57916;51.996;5.180;2023-02-28T09:34:34;7.50;52.20
70456;DHT22;57916;51.996;5.180;2023-02-28T09:37:03;7.50;51.10
70456;DHT22;57916;51.996;5.180;2023-02-28T09:39:30;7.50;48.50
70456;DHT22;57916;51.996;5.180;2023-02-28T09:41:58;7.50;47.30
70456;DHT22;57916;51.996;5.180;2023-02-28T09:44:40;7.50;46.30
70456;DHT22;57916;51.996;5.180;2023-02-28T09:49:47;7.70;46.50
70456;DHT22;57916;51.996;5.180;2023-02-28T09:52:21;7.80;46.80
70456;DHT22;57916;51.996;5.180;2023-02-28T09:54:50;7.80;46.10
70456;DHT22;57916;51.996;5.180;2023-02-28T09:59:54;8.10;46.60
70456;DHT22;57916;51.996;5.180;2023-02-28T10:02:49;8.10;45.40
70456;DHT22;57916;51.996;5.180;2023-02-28T10:05:21;8.20;45.20
70456;DHT22;57916;51.996;5.180;2023-02-28T10:08:10;8.20;44.70
70456;DHT22;57916;51.996;5.180;2023-02-28T10:10:47;8.20;44.70
70456;DHT22;57916;51.996;5.180;2023-02-28T10:13:34;8.30;44.50
70456;DHT22;57916;51.996;5.180;2023-02-28T10:16:06;8.40;44.20
70456;DHT22;57916;51.996;5.180;2023-02-28T10:18:47;8.40;43.40
70456;DHT22;57916;51.996;5.180;2023-02-28T10:24:28;8.60;42.60
70456;DHT22;57916;51.996;5.180;2023-02-28T10:27:06;8.60;42.20
70456;DHT22;57916;51.996;5.180;2023-02-28T10:29:36;8.70;42.40
70456;DHT22;57916;51.996;5.180;2023-02-28T10:32:05;9.10;42.60
70456;DHT22;57916;51.996;5.180;2023-02-28T10:34:32;9.60;41.80
70456;DHT22;57916;51.996;5.180;2023-02-28T10:37:00;9.90;39.80
70456;DHT22;57916;51.996;5.180;2023-02-28T10:39:45;10.00;38.70
70456;DHT22;57916;51.996;5.180;2023-02-28T10:42:29;10.10;39.00
70456;DHT22;57916;51.996;5.180;2023-02-28T10:45:16;10.30;39.30
70456;DHT22;57916;51.996;5.180;2023-02-28T10:47:59;10.30;38.90
70456;DHT22;57916;51.996;5.180;2023-02-28T10:53:28;10.30;37.90
70456;DHT22;57916;51.996;5.180;2023-02-28T10:56:22;10.50;38.30
70456;DHT22;57916;51.996;5.180;2023-02-28T11:01:36;10.70;37.20
70456;DHT22;57916;51.996;5.180;2023-02-28T11:07:04;10.80;37.50
70456;DHT22;57916;51.996;5.180;2023-02-28T11:09:38;11.00;36.20
70456;DHT22;57916;51.996;5.180;2023-02-28T11:14:55;11.10;36.10
70456;DHT22;57916;51.996;5.180;2023-02-28T11:17:28;11.00;36.50
70456;DHT22;57916;51.996;5.180;2023-02-28T11:20:02;10.90;36.90
70456;DHT22;57916;51.996;5.180;2023-02-28T11:22:32;10.80;36.30
70456;DHT22;57916;51.996;5.180;2023-02-28T11:25:08;10.70;36.10
70456;DHT22;57916;51.996;5.180;2023-02-28T11:30:26;10.50;36.40
70456;DHT22;57916;51.996;5.180;2023-02-28T11:32:54;10.40;36.80
70456;DHT22;57916;51.996;5.180;2023-02-28T11:35:33;10.40;36.70
70456;DHT22;57916;51.996;5.180;2023-02-28T11:38:02;10.30;36.20
70456;DHT22;57916;51.996;5.180;2023-02-28T11:40:48;10.20;36.00
70456;DHT22;57916;51.996;5.180;2023-02-28T11:51:24;9.60;37.50
70456;DHT22;57916;51.996;5.180;2023-02-28T11:54:23;9.50;37.80
70456;DHT22;57916;51.996;5.180;2023-02-28T12:00:05;9.60;37.30
70456;DHT22;57916;51.996;5.180;2023-02-28T12:05:20;9.50;37.50
70456;DHT22;57916;51.996;5.180;2023-02-28T12:10:44;9.60;37.90
70456;DHT22;57916;51.996;5.180;2023-02-28T12:13:28;9.60;37.80
70456;DHT22;57916;51.996;5.180;2023-02-28T12:18:51;9.60;37.50
70456;DHT22;57916;51.996;5.180;2023-02-28T12:24:54;9.50;37.50
70456;DHT22;57916;51.996;5.180;2023-02-28T12:27:27;9.60;38.30
70456;DHT22;57916;51.996;5.180;2023-02-28T12:32:42;9.60;37.70
70456;DHT22;57916;51.996;5.180;2023-02-28T12:35:16;9.50;37.50
70456;DHT22;57916;51.996;5.180;2023-02-28T12:41:19;9.50;37.70
70456;DHT22;57916;51.996;5.180;2023-02-28T12:43:42;9.60;37.40
70456;DHT22;57916;51.996;5.180;2023-02-28T12:46:12;9.60;38.10
70456;DHT22;57916;51.996;5.180;2023-02-28T12:51:13;9.70;38.10
70456;DHT22;57916;51.996;5.180;2023-02-28T12:54:05;9.80;38.10
70456;DHT22;57916;51.996;5.180;2023-02-28T12:59:11;9.70;37.10
70456;DHT22;57916;51.996;5.180;2023-02-28T13:05:01;9.70;37.80
70456;DHT22;57916;51.996;5.180;2023-02-28T13:10:43;9.70;37.80
70456;DHT22;57916;51.996;5.180;2023-02-28T13:13:18;9.80;38.30
70456;DHT22;57916;51.996;5.180;2023-02-28T13:18:39;10.00;36.80
70456;DHT22;57916;51.996;5.180;2023-02-28T13:21:08;10.00;37.30
70456;DHT22;57916;51.996;5.180;2023-02-28T13:26:13;9.90;37.00
70456;DHT22;57916;51.996;5.180;2023-02-28T13:31:22;9.90;36.80
70456;DHT22;57916;51.996;5.180;2023-02-28T13:36:30;9.90;38.00
70456;DHT22;57916;51.996;5.180;2023-02-28T13:39:03;9.90;37.90
70456;DHT22;57916;51.996;5.180;2023-02-28T13:41:49;9.90;37.20
70456;DHT22;57916;51.996;5.180;2023-02-28T13:44:20;10.00;37.50
70456;DHT22;57916;51.996;5.180;2023-02-28T13:57:42;9.90;36.80
70456;DHT22;57916;51.996;5.180;2023-02-28T14:05:35;9.90;37.00
70456;DHT22;57916;51.996;5.180;2023-02-28T14:08:11;9.90;37.40
70456;DHT22;57916;51.996;5.180;2023-02-28T14:10:45;9.90;37.90
70456;DHT22;57916;51.996;5.180;2023-02-28T14:15:59;10.00;37.50
70456;DHT22;57916;51.996;5.180;2023-02-28T14:18:35;10.00;37.70
70456;DHT22;57916;51.996;5.180;2023-02-28T14:29:36;10.10;37.30
70456;DHT22;57916;51.996;5.180;2023-02-28T14:32:26;10.00;37.40
70456;DHT22;57916;51.996;5.180;2023-02-28T14:35:39;10.10;38.10
70456;DHT22;57916;51.996;5.180;2023-02-28T14:38:19;10.10;38.20
70456;DHT22;57916;51.996;5.180;2023-02-28T14:40:50;10.10;37.20
70456;DHT22;57916;51.996;5.180;2023-02-28T14:43:21;10.10;37.60
70456;DHT22;57916;51.996;5.180;2023-02-28T14:45:51;10.10;37.80
70456;DHT22;57916;51.996;5.180;2023-02-28T14:48:19;10.10;37.30
70456;DHT22;57916;51.996;5.180;2023-02-28T14:50:58;10.00;37.50
70456;DHT22;57916;51.996;5.180;2023-02-28T14:53:28;10.00;38.40
70456;DHT22;57916;51.996;5.180;2023-02-28T14:55:55;10.00;38.30
70456;DHT22;57916;51.996;5.180;2023-02-28T14:58:28;10.10;38.60
70456;DHT22;57916;51.996;5.180;2023-02-28T15:00:57;10.10;38.50
70456;DHT22;57916;51.996;5.180;2023-02-28T15:03:31;10.20;37.90
70456;DHT22;57916;51.996;5.180;2023-02-28T15:06:00;10.20;37.70
70456;DHT22;57916;51.996;5.180;2023-02-28T15:08:30;10.20;38.10
70456;DHT22;57916;51.996;5.180;2023-02-28T15:11:05;10.20;37.90
70456;DHT22;57916;51.996;5.180;2023-02-28T15:13:49;10.20;37.50
70456;DHT22;57916;51.996;5.180;2023-02-28T15:18:50;10.10;37.60
70456;DHT22;57916;51.996;5.180;2023-02-28T15:21:25;10.10;37.40
70456;DHT22;57916;51.996;5.180;2023-02-28T15:23:56;10.10;37.10
70456;DHT22;57916;51.996;5.180;2023-02-28T15:26:28;10.10;37.80
70456;DHT22;57916;51.996;5.180;2023-02-28T15:29:05;10.10;37.40
70456;DHT22;57916;51.996;5.180;2023-02-28T15:31:35;10.00;36.90
70456;DHT22;57916;51.996;5.180;2023-02-28T15:34:43;9.90;36.80
70456;DHT22;57916;51.996;5.180;2023-02-28T15:37:33;9.80;36.60
70456;DHT22;57916;51.996;5.180;2023-02-28T15:42:37;9.70;37.40
70456;DHT22;57916;51.996;5.180;2023-02-28T15:45:04;9.70;37.30
70456;DHT22;57916;51.996;5.180;2023-02-28T15:47:31;9.70;37.70
70456;DHT22;57916;51.996;5.180;2023-02-28T15:50:02;9.70;37.70
70456;DHT22;57916;51.996;5.180;2023-02-28T15:52:42;9.70;37.50
70456;DHT22;57916;51.996;5.180;2023-02-28T15:55:21;9.60;37.40
70456;DHT22;57916;51.996;5.180;2023-02-28T15:57:57;9.60;37.50
70456;DHT22;57916;51.996;5.180;2023-02-28T16:00:28;9.60;37.90
70456;DHT22;57916;51.996;5.180;2023-02-28T16:02:55;9.60;37.90
70456;DHT22;57916;51.996;5.180;2023-02-28T16:05:28;9.70;38.80
70456;DHT22;57916;51.996;5.180;2023-02-28T16:08:13;9.70;38.90
70456;DHT22;57916;51.996;5.180;2023-02-28T16:10:40;9.70;38.30
70456;DHT22;57916;51.996;5.180;2023-02-28T16:13:10;9.60;38.00
70456;DHT22;57916;51.996;5.180;2023-02-28T16:15:41;9.50;38.30
70456;DHT22;57916;51.996;5.180;2023-02-28T16:18:13;9.40;38.30
70456;DHT22;57916;51.996;5.180;2023-02-28T16:20:40;9.50;38.60
70456;DHT22;57916;51.996;5.180;2023-02-28T16:23:07;9.40;38.60
70456;DHT22;57916;51.996;5.180;2023-02-28T16:25:41;9.40;38.60
70456;DHT22;57916;51.996;5.180;2023-02-28T16:28:25;9.40;38.80
70456;DHT22;57916;51.996;5.180;2023-02-28T16:30:53;9.40;39.20
70456;DHT22;57916;51.996;5.180;2023-02-28T16:33:21;9.40;39.10
70456;DHT22;57916;51.996;5.180;2023-02-28T16:35:48;9.30;39.00
70456;DHT22;57916;51.996;5.180;2023-02-28T16:38:15;9.30;39.20
70456;DHT22;57916;51.996;5.180;2023-02-28T16:40:42;9.20;39.50
70456;DHT22;57916;51.996;5.180;2023-02-28T16:43:18;9.20;39.40
70456;DHT22;57916;51.996;5.180;2023-02-28T16:45:45;9.10;39.60
70456;DHT22;57916;51.996;5.180;2023-02-28T16:48:15;9.10;40.10
70456;DHT22;57916;51.996;5.180;2023-02-28T16:50:42;9.10;40.50
70456;DHT22;57916;51.996;5.180;2023-02-28T16:53:11;9.00;40.40
70456;DHT22;57916;51.996;5.180;2023-02-28T16:55:38;8.90;40.80
70456;DHT22;57916;51.996;5.180;2023-02-28T16:58:05;9.00;41.00
70456;DHT22;57916;51.996;5.180;2023-02-28T17:00:32;8.90;41.00
70456;DHT22;57916;51.996;5.180;2023-02-28T17:02:59;8.90;40.80
70456;DHT22;57916;51.996;5.180;2023-02-28T17:05:29;8.90;40.60
70456;DHT22;57916;51.996;5.180;2023-02-28T17:08:01;8.80;40.60
70456;DHT22;57916;51.996;5.180;2023-02-28T17:10:29;8.70;40.50
70456;DHT22;57916;51.996;5.180;2023-02-28T17:12:55;8.70;40.50
70456;DHT22;57916;51.996;5.180;2023-02-28T17:15:39;8.60;41.00
70456;DHT22;57916;51.996;5.180;2023-02-28T17:18:09;8.60;41.10
70456;DHT22;57916;51.996;5.180;2023-02-28T17:20:40;8.60;41.30
70456;DHT22;57916;51.996;5.180;2023-02-28T17:23:08;8.60;41.80
70456;DHT22;57916;51.996;5.180;2023-02-28T17:25:35;8.50;41.30
70456;DHT22;57916;51.996;5.180;2023-02-28T17:28:02;8.40;41.60
70456;DHT22;57916;51.996;5.180;2023-02-28T17:30:33;8.40;42.20
70456;DHT22;57916;51.996;5.180;2023-02-28T17:33:01;8.40;42.80
70456;DHT22;57916;51.996;5.180;2023-02-28T17:35:28;8.40;43.50
70456;DHT22;57916;51.996;5.180;2023-02-28T17:37:55;8.50;43.70
70456;DHT22;57916;51.996;5.180;2023-02-28T17:40:23;8.50;42.00
70456;DHT22;57916;51.996;5.180;2023-02-28T17:42:50;8.50;42.00
70456;DHT22;57916;51.996;5.180;2023-02-28T17:45:19;8.40;41.60
70456;DHT22;57916;51.996;5.180;2023-02-28T17:47:48;8.30;41.90
70456;DHT22;57916;51.996;5.180;2023-02-28T17:50:19;8.20;41.90
70456;DHT22;57916;51.996;5.180;2023-02-28T17:52:48;8.10;42.10
70456;DHT22;57916;51.996;5.180;2023-02-28T17:55:17;8.00;41.90
70456;DHT22;57916;51.996;5.180;2023-02-28T17:57:45;8.00;43.10
70456;DHT22;57916;51.996;5.180;2023-02-28T18:00:14;8.00;43.70
70456;DHT22;57916;51.996;5.180;2023-02-28T18:02:43;8.10;43.90
70456;DHT22;57916;51.996;5.180;2023-02-28T18:05:11;8.10;44.10
70456;DHT22;57916;51.996;5.180;2023-02-28T18:07:38;8.20;43.30
70456;DHT22;57916;51.996;5.180;2023-02-28T18:10:07;8.20;42.80
70456;DHT22;57916;51.996;5.180;2023-02-28T18:12:39;8.20;43.00
70456;DHT22;57916;51.996;5.180;2023-02-28T18:15:06;8.20;44.40
70456;DHT22;57916;51.996;5.180;2023-02-28T18:17:33;8.30;44.80
70456;DHT22;57916;51.996;5.180;2023-02-28T18:20:00;8.20;44.20
70456;DHT22;57916;51.996;5.180;2023-02-28T18:22:27;8.30;44.60
70456;DHT22;57916;51.996;5.180;2023-02-28T18:24:54;8.30;44.60